sensor_id;sensor_type;location;lat;lon;timestamp;temperature;humidity
20845;DHT22;10583;49.084;8.646;2023-12-20T00:01:33;5.70;99.90
20845;DHT22;10583;49.084;8.646;2023-12-20T00:04:01;5.70;99.90
20845;DHT22;10583;49.084;8.646;2023-12-20T00:06:28;5.70;99.90
20845;DHT22;10583;49.084;8.646;2023-12-20T00:08:55;5.70;99.90
20845;DHT22;10583;49.084;8.646;2023-12-20T00:11:23;5.60;99.90
20845;DHT22;10583;49.084;8.646;2023-12-20T00:13:50;5.60;99.90
20845;DHT22;10583;49.084;8.646;2023-12-20T00:16:17;5.60;99.90
20845;DHT22;10583;49.084;8.646;2023-12-20T00:18:43;5.60;99.90
20845;DHT22;10583;49.084;8.646;2023-12-20T00:21:11;5.60;99.90
20845;DHT22;10583;49.084;8.646;2023-12-20T00:23:38;5.60;99.90
20845;DHT22;10583;49.084;8.646;2023-12-20T00:26:05;5.60;99.90
20845;DHT22;10583;49.084;8.646;2023-12-20T00:28:31;5.60;99.90
20845;DHT22;10583;49.084;8.646;2023-12-20T00:30:58;5.60;99.90
20845;DHT22;10583;49.084;8.646;2023-12-20T00:33:25;5.60;99.90
20845;DHT22;10583;49.084;8.646;2023-12-20T00:35:52;5.50;99.90
20845;DHT22;10583;49.084;8.646;2023-12-20T00:38:20;5.50;99.90
20845;DHT22;10583;49.084;8.646;2023-12-20T00:40:48;5.50;99.90
20845;DHT22;10583;49.084;8.646;2023-12-20T00:43:15;5.50;99.90
20845;DHT22;10583;49.084;8.646;2023-12-20T00:45:41;5.50;99.90
20845;DHT22;10583;49.084;8.646;2023-12-20T00:48:08;5.50;99.90
20845;DHT22;10583;49.084;8.646;2023-12-20T00:50:35;5.50;99.90
20845;DHT22;10583;49.084;8.646;2023-12-20T00:53:01;5.50;99.90
20845;DHT22;10583;49.084;8.646;2023-12-20T00:55:29;5.50;99.90
20845;DHT22;10583;49.084;8.646;2023-12-20T00:57:56;5.50;99.90
20845;DHT22;10583;49.084;8.646;2023-12-20T01:00:24;5.40;99.90
20845;DHT22;10583;49.084;8.646;2023-12-20T01:02:51;5.40;99.90
20845;DHT22;10583;49.084;8.646;2023-12-20T01:05:18;5.50;99.90
20845;DHT22;10583;49.084;8.646;2023-12-20T01:07:48;5.40;99.90
20845;DHT22;10583;49.084;8.646;2023-12-20T01:10:15;5.50;99.90
20845;DHT22;10583;49.084;8.646;2023-12-20T01:12:44;5.40;99.90
20845;DHT22;10583;49.084;8.646;2023-12-20T01:15:10;5.50;99.90
20845;DHT22;10583;49.084;8.646;2023-12-20T01:17:37;5.50;99.90
20845;DHT22;10583;49.084;8.646;2023-12-20T01:20:05;5.50;99.90
20845;DHT22;10583;49.084;8.646;2023-12-20T01:22:32;5.50;99.90
20845;DHT22;10583;49.084;8.646;2023-12-20T01:25:01;5.50;99.90
20845;DHT22;10583;49.084;8.646;2023-12-20T01:27:28;5.50;99.90
20845;DHT22;10583;49.084;8.646;2023-12-20T01:29:57;5.50;99.90
20845;DHT22;10583;49.084;8.646;2023-12-20T01:32:24;5.50;99.90
20845;DHT22;10583;49.084;8.646;2023-12-20T01:34:51;5.50;99.90
20845;DHT22;10583;49.084;8.646;2023-12-20T01:37:17;5.50;99.90
20845;DHT22;10583;49.084;8.646;2023-12-20T01:39:44;5.50;99.90
20845;DHT22;10583;49.084;8.646;2023-12-20T01:42:11;5.50;99.90
20845;DHT22;10583;49.084;8.646;2023-12-20T01:44:38;5.50;99.90
20845;DHT22;10583;49.084;8.646;2023-12-20T01:47:06;5.50;99.90
20845;DHT22;10583;49.084;8.646;2023-12-20T01:49:33;5.50;99.90
20845;DHT22;10583;49.084;8.646;2023-12-20T01:51:59;5.50;99.90
20845;DHT22;10583;49.084;8.646;2023-12-20T01:54:26;5.50;99.90
20845;DHT22;10583;49.084;8.646;2023-12-20T01:56:53;5.50;99.90
20845;DHT22;10583;49.084;8.646;2023-12-20T01:59:21;5.50;99.90
20845;DHT22;10583;49.084;8.646;2023-12-20T02:01:48;5.50;99.90
20845;DHT22;10583;49.084;8.646;2023-12-20T02:04:16;5.50;99.90
20845;DHT22;10583;49.084;8.646;2023-12-20T02:06:43;5.60;99.90
20845;DHT22;10583;49.084;8.646;2023-12-20T02:09:12;5.50;99.90
20845;DHT22;10583;49.084;8.646;2023-12-20T02:11:39;5.50;99.90
20845;DHT22;10583;49.084;8.646;2023-12-20T02:14:06;5.50;99.90
20845;DHT22;10583;49.084;8.646;2023-12-20T02:16:33;5.50;99.90
20845;DHT22;10583;49.084;8.646;2023-12-20T02:19:00;5.60;99.90
20845;DHT22;10583;49.084;8.646;2023-12-20T02:21:33;5.60;99.90
20845;DHT22;10583;49.084;8.646;2023-12-20T02:24:00;5.60;99.90
20845;DHT22;10583;49.084;8.646;2023-12-20T02:26:27;5.50;99.90
20845;DHT22;10583;49.084;8.646;2023-12-20T02:28:53;5.50;99.90
20845;DHT22;10583;49.084;8.646;2023-12-20T02:31:21;5.50;99.90
20845;DHT22;10583;49.084;8.646;2023-12-20T02:33:47;5.50;99.90
20845;DHT22;10583;49.084;8.646;2023-12-20T02:36:14;5.50;99.90
20845;DHT22;10583;49.084;8.646;2023-12-20T02:38:42;5.50;99.90
20845;DHT22;10583;49.084;8.646;2023-12-20T02:41:09;5.50;99.90
20845;DHT22;10583;49.084;8.646;2023-12-20T02:43:36;5.50;99.90
20845;DHT22;10583;49.084;8.646;2023-12-20T02:46:03;5.50;99.90
20845;DHT22;10583;49.084;8.646;2023-12-20T02:48:29;5.50;99.90
20845;DHT22;10583;49.084;8.646;2023-12-20T02:50:56;5.60;99.90
20845;DHT22;10583;49.084;8.646;2023-12-20T02:53:23;5.50;99.90
20845;DHT22;10583;49.084;8.646;2023-12-20T02:55:51;5.50;99.90
20845;DHT22;10583;49.084;8.646;2023-12-20T02:58:17;5.50;99.90
20845;DHT22;10583;49.084;8.646;2023-12-20T03:00:44;5.50;99.90
20845;DHT22;10583;49.084;8.646;2023-12-20T03:03:11;5.50;99.90
20845;DHT22;10583;49.084;8.646;2023-12-20T03:05:37;5.50;99.90
20845;DHT22;10583;49.084;8.646;2023-12-20T03:08:04;5.60;99.90
20845;DHT22;10583;49.084;8.646;2023-12-20T03:10:31;5.50;99.90
20845;DHT22;10583;49.084;8.646;2023-12-20T03:12:59;5.50;99.90
20845;DHT22;10583;49.084;8.646;2023-12-20T03:15:26;5.50;99.90
20845;DHT22;10583;49.084;8.646;2023-12-20T03:17:53;5.50;99.90
20845;DHT22;10583;49.084;8.646;2023-12-20T03:20:19;5.50;99.90
20845;DHT22;10583;49.084;8.646;2023-12-20T03:22:46;5.50;99.90
20845;DHT22;10583;49.084;8.646;2023-12-20T03:25:13;5.50;99.90
20845;DHT22;10583;49.084;8.646;2023-12-20T03:27:39;5.50;99.90
20845;DHT22;10583;49.084;8.646;2023-12-20T03:30:08;5.50;99.90
20845;DHT22;10583;49.084;8.646;2023-12-20T03:32:35;5.50;99.90
20845;DHT22;10583;49.084;8.646;2023-12-20T03:35:03;5.50;99.90
20845;DHT22;10583;49.084;8.646;2023-12-20T03:37:30;5.50;99.90
20845;DHT22;10583;49.084;8.646;2023-12-20T03:39:56;5.50;99.90
20845;DHT22;10583;49.084;8.646;2023-12-20T03:42:23;5.50;99.90
20845;DHT22;10583;49.084;8.646;2023-12-20T03:44:50;5.50;99.90
20845;DHT22;10583;49.084;8.646;2023-12-20T03:47:18;5.50;99.90
20845;DHT22;10583;49.084;8.646;2023-12-20T03:49:44;5.50;99.90
20845;DHT22;10583;49.084;8.646;2023-12-20T03:52:11;5.50;99.90
20845;DHT22;10583;49.084;8.646;2023-12-20T03:54:38;5.50;99.90
20845;DHT22;10583;49.084;8.646;2023-12-20T03:57:05;5.50;99.90
20845;DHT22;10583;49.084;8.646;2023-12-20T03:59:35;5.50;99.90
20845;DHT22;10583;49.084;8.646;2023-12-20T04:02:01;5.50;99.90
20845;DHT22;10583;49.084;8.646;2023-12-20T04:04:29;5.50;99.90
20845;DHT22;10583;49.084;8.646;2023-12-20T04:06:56;5.50;99.90
20845;DHT22;10583;49.084;8.646;2023-12-20T04:09:23;5.50;99.90
20845;DHT22;10583;49.084;8.646;2023-12-20T04:11:49;5.50;99.90
20845;DHT22;10583;49.084;8.646;2023-12-20T04:14:16;5.50;99.90
20845;DHT22;10583;49.084;8.646;2023-12-20T04:16:43;5.50;99.90
20845;DHT22;10583;49.084;8.646;2023-12-20T04:19:09;5.50;99.90
20845;DHT22;10583;49.084;8.646;2023-12-20T04:21:37;5.50;99.90
20845;DHT22;10583;49.084;8.646;2023-12-20T04:24:05;5.50;99.90
20845;DHT22;10583;49.084;8.646;2023-12-20T04:26:31;5.50;99.90
20845;DHT22;10583;49.084;8.646;2023-12-20T04:28:58;5.50;99.90
20845;DHT22;10583;49.084;8.646;2023-12-20T04:31:25;5.50;99.90
20845;DHT22;10583;49.084;8.646;2023-12-20T04:33:51;5.50;99.90
20845;DHT22;10583;49.084;8.646;2023-12-20T04:36:18;5.50;99.90
20845;DHT22;10583;49.084;8.646;2023-12-20T04:38:46;5.50;99.90
20845;DHT22;10583;49.084;8.646;2023-12-20T04:41:13;5.50;99.90
20845;DHT22;10583;49.084;8.646;2023-12-20T04:43:41;5.50;99.90
20845;DHT22;10583;49.084;8.646;2023-12-20T04:46:08;5.50;99.90
20845;DHT22;10583;49.084;8.646;2023-12-20T04:48:34;5.50;99.90
20845;DHT22;10583;49.084;8.646;2023-12-20T04:51:01;5.50;99.90
20845;DHT22;10583;49.084;8.646;2023-12-20T04:53:28;5.50;99.90
20845;DHT22;10583;49.084;8.646;2023-12-20T04:55:56;5.60;99.90
20845;DHT22;10583;49.084;8.646;2023-12-20T04:58:22;5.60;99.90
20845;DHT22;10583;49.084;8.646;2023-12-20T05:00:49;5.60;99.90
20845;DHT22;10583;49.084;8.646;2023-12-20T05:03:16;5.60;99.90
20845;DHT22;10583;49.084;8.646;2023-12-20T05:05:42;5.60;99.90
20845;DHT22;10583;49.084;8.646;2023-12-20T05:08:09;5.60;99.90
20845;DHT22;10583;49.084;8.646;2023-12-20T05:10:36;5.60;99.90
20845;DHT22;10583;49.084;8.646;2023-12-20T05:13:04;5.60;99.90
20845;DHT22;10583;49.084;8.646;2023-12-20T05:15:31;5.60;99.90
20845;DHT22;10583;49.084;8.646;2023-12-20T05:17:57;5.60;99.90
20845;DHT22;10583;49.084;8.646;2023-12-20T05:20:24;5.60;99.90
20845;DHT22;10583;49.084;8.646;2023-12-20T05:22:51;5.60;99.90
20845;DHT22;10583;49.084;8.646;2023-12-20T05:25:17;5.60;99.90
20845;DHT22;10583;49.084;8.646;2023-12-20T05:27:44;5.60;99.90
20845;DHT22;10583;49.084;8.646;2023-12-20T05:30:13;5.60;99.90
20845;DHT22;10583;49.084;8.646;2023-12-20T05:32:40;5.60;99.90
20845;DHT22;10583;49.084;8.646;2023-12-20T05:35:07;5.60;99.90
20845;DHT22;10583;49.084;8.646;2023-12-20T05:37:33;5.60;99.90
20845;DHT22;10583;49.084;8.646;2023-12-20T05:40:00;5.60;99.90
20845;DHT22;10583;49.084;8.646;2023-12-20T05:42:27;5.60;99.90
20845;DHT22;10583;49.084;8.646;2023-12-20T05:44:54;5.60;99.90
20845;DHT22;10583;49.084;8.646;2023-12-20T05:47:21;5.60;99.90
20845;DHT22;10583;49.084;8.646;2023-12-20T05:49:47;5.60;99.90
20845;DHT22;10583;49.084;8.646;2023-12-20T05:52:15;5.60;99.90
20845;DHT22;10583;49.084;8.646;2023-12-20T05:54:42;5.60;99.90
20845;DHT22;10583;49.084;8.646;2023-12-20T05:57:09;5.70;99.90
20845;DHT22;10583;49.084;8.646;2023-12-20T05:59:35;5.70;99.90
20845;DHT22;10583;49.084;8.646;2023-12-20T06:02:03;5.70;99.90
20845;DHT22;10583;49.084;8.646;2023-12-20T06:04:31;5.70;99.90
20845;DHT22;10583;49.084;8.646;2023-12-20T06:06:58;5.60;99.90
20845;DHT22;10583;49.084;8.646;2023-12-20T06:09:26;5.60;99.90
20845;DHT22;10583;49.084;8.646;2023-12-20T06:11:53;5.60;99.90
20845;DHT22;10583;49.084;8.646;2023-12-20T06:14:20;5.60;99.90
20845;DHT22;10583;49.084;8.646;2023-12-20T06:16:47;5.60;99.90
20845;DHT22;10583;49.084;8.646;2023-12-20T06:19:13;5.60;99.90
20845;DHT22;10583;49.084;8.646;2023-12-20T06:21:41;5.60;99.90
20845;DHT22;10583;49.084;8.646;2023-12-20T06:24:08;5.60;99.90
20845;DHT22;10583;49.084;8.646;2023-12-20T06:26:35;5.60;99.90
20845;DHT22;10583;49.084;8.646;2023-12-20T06:29:01;5.60;99.90
20845;DHT22;10583;49.084;8.646;2023-12-20T06:31:28;5.70;99.90
20845;DHT22;10583;49.084;8.646;2023-12-20T06:33:55;5.70;99.90
20845;DHT22;10583;49.084;8.646;2023-12-20T06:36:25;5.70;99.90
20845;DHT22;10583;49.084;8.646;2023-12-20T06:38:53;5.70;99.90
20845;DHT22;10583;49.084;8.646;2023-12-20T06:41:20;5.70;99.90
20845;DHT22;10583;49.084;8.646;2023-12-20T06:43:47;5.70;99.90
20845;DHT22;10583;49.084;8.646;2023-12-20T06:46:14;5.70;99.90
20845;DHT22;10583;49.084;8.646;2023-12-20T06:48:40;5.70;99.90
20845;DHT22;10583;49.084;8.646;2023-12-20T06:51:11;5.70;99.90
20845;DHT22;10583;49.084;8.646;2023-12-20T06:53:39;5.70;99.90
20845;DHT22;10583;49.084;8.646;2023-12-20T06:56:07;5.70;99.90
20845;DHT22;10583;49.084;8.646;2023-12-20T06:58:34;5.60;99.90
20845;DHT22;10583;49.084;8.646;2023-12-20T07:01:02;5.60;99.90
20845;DHT22;10583;49.084;8.646;2023-12-20T07:03:29;5.60;99.90
20845;DHT22;10583;49.084;8.646;2023-12-20T07:05:56;5.60;99.90
20845;DHT22;10583;49.084;8.646;2023-12-20T07:08:23;5.60;99.90
20845;DHT22;10583;49.084;8.646;2023-12-20T07:10:50;5.60;99.90
20845;DHT22;10583;49.084;8.646;2023-12-20T07:13:18;5.50;99.90
20845;DHT22;10583;49.084;8.646;2023-12-20T07:15:45;5.50;99.90
20845;DHT22;10583;49.084;8.646;2023-12-20T07:18:11;5.40;99.90
20845;DHT22;10583;49.084;8.646;2023-12-20T07:20:38;5.50;99.90
20845;DHT22;10583;49.084;8.646;2023-12-20T07:23:05;5.50;99.90
20845;DHT22;10583;49.084;8.646;2023-12-20T07:25:32;5.40;99.90
20845;DHT22;10583;49.084;8.646;2023-12-20T07:27:59;5.40;99.90
20845;DHT22;10583;49.084;8.646;2023-12-20T07:30:27;5.50;99.90
20845;DHT22;10583;49.084;8.646;2023-12-20T07:32:54;5.50;99.90
20845;DHT22;10583;49.084;8.646;2023-12-20T07:35:21;5.50;99.90
20845;DHT22;10583;49.084;8.646;2023-12-20T07:37:47;5.50;99.90
20845;DHT22;10583;49.084;8.646;2023-12-20T07:40:14;5.50;99.90
20845;DHT22;10583;49.084;8.646;2023-12-20T07:42:42;5.50;99.90
20845;DHT22;10583;49.084;8.646;2023-12-20T07:45:09;5.50;99.90
20845;DHT22;10583;49.084;8.646;2023-12-20T07:47:38;5.50;99.90
20845;DHT22;10583;49.084;8.646;2023-12-20T07:50:06;5.50;99.90
20845;DHT22;10583;49.084;8.646;2023-12-20T07:52:33;5.50;99.90
20845;DHT22;10583;49.084;8.646;2023-12-20T07:55:00;5.40;99.90
20845;DHT22;10583;49.084;8.646;2023-12-20T07:57:28;5.40;99.90
20845;DHT22;10583;49.084;8.646;2023-12-20T07:59:55;5.30;99.90
20845;DHT22;10583;49.084;8.646;2023-12-20T08:02:22;5.30;99.90
20845;DHT22;10583;49.084;8.646;2023-12-20T08:04:50;5.20;99.90
20845;DHT22;10583;49.084;8.646;2023-12-20T08:07:17;5.20;99.90
20845;DHT22;10583;49.084;8.646;2023-12-20T08:09:43;5.20;99.90
20845;DHT22;10583;49.084;8.646;2023-12-20T08:12:10;5.20;99.90
20845;DHT22;10583;49.084;8.646;2023-12-20T08:14:38;5.20;99.90
20845;DHT22;10583;49.084;8.646;2023-12-20T08:17:05;5.30;99.90
20845;DHT22;10583;49.084;8.646;2023-12-20T08:19:32;5.50;99.90
20845;DHT22;10583;49.084;8.646;2023-12-20T08:22:00;5.60;99.90
20845;DHT22;10583;49.084;8.646;2023-12-20T08:24:26;5.70;99.90
20845;DHT22;10583;49.084;8.646;2023-12-20T08:26:53;5.90;99.90
20845;DHT22;10583;49.084;8.646;2023-12-20T08:29:20;6.00;99.90
20845;DHT22;10583;49.084;8.646;2023-12-20T08:31:52;6.10;99.90
20845;DHT22;10583;49.084;8.646;2023-12-20T08:34:18;6.20;99.90
20845;DHT22;10583;49.084;8.646;2023-12-20T08:36:45;6.20;99.90
20845;DHT22;10583;49.084;8.646;2023-12-20T08:39:13;6.30;99.90
20845;DHT22;10583;49.084;8.646;2023-12-20T08:41:40;6.30;99.90
20845;DHT22;10583;49.084;8.646;2023-12-20T08:44:07;6.40;99.90
20845;DHT22;10583;49.084;8.646;2023-12-20T08:46:33;6.50;99.90
20845;DHT22;10583;49.084;8.646;2023-12-20T08:49:00;6.50;99.90
20845;DHT22;10583;49.084;8.646;2023-12-20T08:51:27;6.50;99.90
20845;DHT22;10583;49.084;8.646;2023-12-20T08:53:54;6.50;99.90
20845;DHT22;10583;49.084;8.646;2023-12-20T08:56:22;6.60;99.90
20845;DHT22;10583;49.084;8.646;2023-12-20T08:58:49;6.70;99.90
20845;DHT22;10583;49.084;8.646;2023-12-20T09:01:16;6.70;99.90
20845;DHT22;10583;49.084;8.646;2023-12-20T09:03:43;6.90;99.90
20845;DHT22;10583;49.084;8.646;2023-12-20T09:06:09;6.80;99.90
20845;DHT22;10583;49.084;8.646;2023-12-20T09:08:36;6.90;99.90
20845;DHT22;10583;49.084;8.646;2023-12-20T09:11:03;6.80;99.90
20845;DHT22;10583;49.084;8.646;2023-12-20T09:13:31;7.00;99.90
20845;DHT22;10583;49.084;8.646;2023-12-20T09:15:58;7.10;99.90
20845;DHT22;10583;49.084;8.646;2023-12-20T09:18:25;7.20;99.90
20845;DHT22;10583;49.084;8.646;2023-12-20T09:20:51;7.20;99.90
20845;DHT22;10583;49.084;8.646;2023-12-20T09:23:18;7.20;99.90
20845;DHT22;10583;49.084;8.646;2023-12-20T09:25:45;7.30;99.90
20845;DHT22;10583;49.084;8.646;2023-12-20T09:28:12;7.30;99.90
20845;DHT22;10583;49.084;8.646;2023-12-20T09:30:40;7.60;99.90
20845;DHT22;10583;49.084;8.646;2023-12-20T09:33:06;7.90;99.90
20845;DHT22;10583;49.084;8.646;2023-12-20T09:35:33;7.80;99.90
20845;DHT22;10583;49.084;8.646;2023-12-20T09:38:00;7.60;99.90
20845;DHT22;10583;49.084;8.646;2023-12-20T09:40:28;7.80;99.90
20845;DHT22;10583;49.084;8.646;2023-12-20T09:42:56;7.90;99.90
20845;DHT22;10583;49.084;8.646;2023-12-20T09:45:24;8.00;99.90
20845;DHT22;10583;49.084;8.646;2023-12-20T09:47:53;8.10;99.90
20845;DHT22;10583;49.084;8.646;2023-12-20T09:50:20;8.30;99.90
20845;DHT22;10583;49.084;8.646;2023-12-20T09:52:50;8.20;99.90
20845;DHT22;10583;49.084;8.646;2023-12-20T09:55:17;8.20;99.90
20845;DHT22;10583;49.084;8.646;2023-12-20T09:57:44;8.20;99.90
20845;DHT22;10583;49.084;8.646;2023-12-20T10:00:14;8.30;99.90
20845;DHT22;10583;49.084;8.646;2023-12-20T10:02:45;8.40;99.90
20845;DHT22;10583;49.084;8.646;2023-12-20T10:05:17;8.30;99.90
20845;DHT22;10583;49.084;8.646;2023-12-20T10:07:45;8.50;99.90
20845;DHT22;10583;49.084;8.646;2023-12-20T10:10:13;8.50;99.90
20845;DHT22;10583;49.084;8.646;2023-12-20T10:12:40;8.50;99.90
20845;DHT22;10583;49.084;8.646;2023-12-20T10:15:07;8.30;99.90
20845;DHT22;10583;49.084;8.646;2023-12-20T10:17:35;8.20;99.90
20845;DHT22;10583;49.084;8.646;2023-12-20T10:20:03;8.20;99.90
20845;DHT22;10583;49.084;8.646;2023-12-20T10:22:36;8.40;99.90
20845;DHT22;10583;49.084;8.646;2023-12-20T10:25:04;8.50;99.90
20845;DHT22;10583;49.084;8.646;2023-12-20T10:27:30;8.60;99.90
20845;DHT22;10583;49.084;8.646;2023-12-20T10:29:58;9.10;99.90
20845;DHT22;10583;49.084;8.646;2023-12-20T10:32:26;9.40;99.90
20845;DHT22;10583;49.084;8.646;2023-12-20T10:34:54;9.30;99.90
20845;DHT22;10583;49.084;8.646;2023-12-20T10:37:21;8.80;99.90
20845;DHT22;10583;49.084;8.646;2023-12-20T10:39:51;8.40;99.90
20845;DHT22;10583;49.084;8.646;2023-12-20T10:42:21;8.00;99.90
20845;DHT22;10583;49.084;8.646;2023-12-20T10:44:49;7.70;99.90
20845;DHT22;10583;49.084;8.646;2023-12-20T10:47:16;7.30;99.90
20845;DHT22;10583;49.084;8.646;2023-12-20T10:49:43;7.20;99.90
20845;DHT22;10583;49.084;8.646;2023-12-20T10:52:11;7.30;99.90
20845;DHT22;10583;49.084;8.646;2023-12-20T10:54:39;7.20;99.90
20845;DHT22;10583;49.084;8.646;2023-12-20T10:57:08;7.10;99.90
20845;DHT22;10583;49.084;8.646;2023-12-20T10:59:37;7.10;99.90
20845;DHT22;10583;49.084;8.646;2023-12-20T11:02:04;6.90;99.90
20845;DHT22;10583;49.084;8.646;2023-12-20T11:04:47;6.90;99.90
20845;DHT22;10583;49.084;8.646;2023-12-20T11:07:21;6.90;99.90
20845;DHT22;10583;49.084;8.646;2023-12-20T11:09:56;6.80;99.90
20845;DHT22;10583;49.084;8.646;2023-12-20T11:12:35;6.90;99.90
20845;DHT22;10583;49.084;8.646;2023-12-20T11:15:05;7.00;99.90
20845;DHT22;10583;49.084;8.646;2023-12-20T11:17:32;7.10;99.90
20845;DHT22;10583;49.084;8.646;2023-12-20T11:20:07;7.20;99.90
20845;DHT22;10583;49.084;8.646;2023-12-20T11:22:37;7.10;99.90
20845;DHT22;10583;49.084;8.646;2023-12-20T11:25:08;7.10;99.90
20845;DHT22;10583;49.084;8.646;2023-12-20T11:27:40;7.20;99.90
20845;DHT22;10583;49.084;8.646;2023-12-20T11:30:08;7.10;99.90
20845;DHT22;10583;49.084;8.646;2023-12-20T11:32:35;7.10;99.90
20845;DHT22;10583;49.084;8.646;2023-12-20T11:35:17;7.10;99.90
20845;DHT22;10583;49.084;8.646;2023-12-20T11:37:45;7.10;99.90
20845;DHT22;10583;49.084;8.646;2023-12-20T11:40:14;7.10;99.90
20845;DHT22;10583;49.084;8.646;2023-12-20T11:42:44;7.10;99.90
20845;DHT22;10583;49.084;8.646;2023-12-20T11:45:13;7.10;99.90
20845;DHT22;10583;49.084;8.646;2023-12-20T11:47:42;6.90;99.90
20845;DHT22;10583;49.084;8.646;2023-12-20T11:50:09;6.80;99.90
20845;DHT22;10583;49.084;8.646;2023-12-20T11:52:36;6.70;99.90
20845;DHT22;10583;49.084;8.646;2023-12-20T11:55:03;6.70;99.90
20845;DHT22;10583;49.084;8.646;2023-12-20T11:57:30;6.70;99.90
20845;DHT22;10583;49.084;8.646;2023-12-20T11:59:58;6.70;99.90
20845;DHT22;10583;49.084;8.646;2023-12-20T12:02:25;6.70;99.90
20845;DHT22;10583;49.084;8.646;2023-12-20T12:04:51;6.70;99.90
20845;DHT22;10583;49.084;8.646;2023-12-20T12:07:18;6.70;99.90
20845;DHT22;10583;49.084;8.646;2023-12-20T12:09:46;6.70;99.90
20845;DHT22;10583;49.084;8.646;2023-12-20T12:12:13;6.70;99.90
20845;DHT22;10583;49.084;8.646;2023-12-20T12:14:40;6.70;99.90
20845;DHT22;10583;49.084;8.646;2023-12-20T12:17:11;6.70;99.90
20845;DHT22;10583;49.084;8.646;2023-12-20T12:19:39;6.70;99.90
20845;DHT22;10583;49.084;8.646;2023-12-20T12:22:06;6.80;99.90
20845;DHT22;10583;49.084;8.646;2023-12-20T12:24:35;6.80;99.90
20845;DHT22;10583;49.084;8.646;2023-12-20T12:27:03;6.80;99.90
20845;DHT22;10583;49.084;8.646;2023-12-20T12:29:30;6.70;99.90
20845;DHT22;10583;49.084;8.646;2023-12-20T12:31:56;6.70;99.90
20845;DHT22;10583;49.084;8.646;2023-12-20T12:34:27;6.70;99.90
20845;DHT22;10583;49.084;8.646;2023-12-20T12:36:53;6.70;99.90
20845;DHT22;10583;49.084;8.646;2023-12-20T12:39:20;6.60;99.90
20845;DHT22;10583;49.084;8.646;2023-12-20T12:41:47;6.60;99.90
20845;DHT22;10583;49.084;8.646;2023-12-20T12:44:14;6.50;99.90
20845;DHT22;10583;49.084;8.646;2023-12-20T12:46:40;6.50;99.90
20845;DHT22;10583;49.084;8.646;2023-12-20T12:49:07;6.50;99.90
20845;DHT22;10583;49.084;8.646;2023-12-20T12:51:35;6.50;99.90
20845;DHT22;10583;49.084;8.646;2023-12-20T12:54:02;6.40;99.90
20845;DHT22;10583;49.084;8.646;2023-12-20T12:56:29;6.40;99.90
20845;DHT22;10583;49.084;8.646;2023-12-20T12:58:56;6.40;99.90
20845;DHT22;10583;49.084;8.646;2023-12-20T13:01:22;6.30;99.90
20845;DHT22;10583;49.084;8.646;2023-12-20T13:03:49;6.30;99.90
20845;DHT22;10583;49.084;8.646;2023-12-20T13:06:16;6.30;99.90
20845;DHT22;10583;49.084;8.646;2023-12-20T13:08:44;6.30;99.90
20845;DHT22;10583;49.084;8.646;2023-12-20T13:11:11;6.40;99.90
20845;DHT22;10583;49.084;8.646;2023-12-20T13:13:38;6.40;99.90
20845;DHT22;10583;49.084;8.646;2023-12-20T13:16:05;6.40;99.90
20845;DHT22;10583;49.084;8.646;2023-12-20T13:18:32;6.40;99.90
20845;DHT22;10583;49.084;8.646;2023-12-20T13:20:59;6.40;99.90
20845;DHT22;10583;49.084;8.646;2023-12-20T13:23:26;6.30;99.90
20845;DHT22;10583;49.084;8.646;2023-12-20T13:25:54;6.30;99.90
20845;DHT22;10583;49.084;8.646;2023-12-20T13:28:20;6.40;99.90
20845;DHT22;10583;49.084;8.646;2023-12-20T13:30:47;6.30;99.90
20845;DHT22;10583;49.084;8.646;2023-12-20T13:33:14;6.30;99.90
20845;DHT22;10583;49.084;8.646;2023-12-20T13:35:39;6.20;99.90
20845;DHT22;10583;49.084;8.646;2023-12-20T13:38:06;6.20;99.90
20845;DHT22;10583;49.084;8.646;2023-12-20T13:40:33;6.20;99.90
20845;DHT22;10583;49.084;8.646;2023-12-20T13:43:01;6.30;99.90
20845;DHT22;10583;49.084;8.646;2023-12-20T13:45:29;6.20;99.90
20845;DHT22;10583;49.084;8.646;2023-12-20T13:47:55;6.20;99.90
20845;DHT22;10583;49.084;8.646;2023-12-20T13:50:22;6.20;99.90
20845;DHT22;10583;49.084;8.646;2023-12-20T13:52:49;6.20;99.90
20845;DHT22;10583;49.084;8.646;2023-12-20T13:55:15;6.20;99.90
20845;DHT22;10583;49.084;8.646;2023-12-20T13:57:42;6.20;99.90
20845;DHT22;10583;49.084;8.646;2023-12-20T14:00:12;6.20;99.90
20845;DHT22;10583;49.084;8.646;2023-12-20T14:02:40;6.20;99.90
20845;DHT22;10583;49.084;8.646;2023-12-20T14:05:08;6.20;99.90
20845;DHT22;10583;49.084;8.646;2023-12-20T14:07:35;6.20;99.90
20845;DHT22;10583;49.084;8.646;2023-12-20T14:10:01;6.20;99.90
20845;DHT22;10583;49.084;8.646;2023-12-20T14:12:28;6.20;99.90
20845;DHT22;10583;49.084;8.646;2023-12-20T14:14:55;6.10;99.90
20845;DHT22;10583;49.084;8.646;2023-12-20T14:17:23;6.20;99.90
20845;DHT22;10583;49.084;8.646;2023-12-20T14:19:50;6.10;99.90
20845;DHT22;10583;49.084;8.646;2023-12-20T14:22:17;6.20;99.90
20845;DHT22;10583;49.084;8.646;2023-12-20T14:24:44;6.10;99.90
20845;DHT22;10583;49.084;8.646;2023-12-20T14:27:11;6.10;99.90
20845;DHT22;10583;49.084;8.646;2023-12-20T14:29:38;6.10;99.90
20845;DHT22;10583;49.084;8.646;2023-12-20T14:32:06;6.10;99.90
20845;DHT22;10583;49.084;8.646;2023-12-20T14:34:34;6.00;99.90
20845;DHT22;10583;49.084;8.646;2023-12-20T14:37:02;6.00;99.90
20845;DHT22;10583;49.084;8.646;2023-12-20T14:39:29;6.00;99.90
20845;DHT22;10583;49.084;8.646;2023-12-20T14:41:56;6.00;99.90
20845;DHT22;10583;49.084;8.646;2023-12-20T14:44:23;6.00;99.90
20845;DHT22;10583;49.084;8.646;2023-12-20T14:46:50;6.00;99.90
20845;DHT22;10583;49.084;8.646;2023-12-20T14:49:16;6.00;99.90
20845;DHT22;10583;49.084;8.646;2023-12-20T14:51:45;5.90;99.90
20845;DHT22;10583;49.084;8.646;2023-12-20T14:54:13;5.90;99.90
20845;DHT22;10583;49.084;8.646;2023-12-20T14:56:40;5.90;99.90
20845;DHT22;10583;49.084;8.646;2023-12-20T14:59:07;5.90;99.90
20845;DHT22;10583;49.084;8.646;2023-12-20T15:01:33;5.90;99.90
20845;DHT22;10583;49.084;8.646;2023-12-20T15:04:01;5.90;99.90
20845;DHT22;10583;49.084;8.646;2023-12-20T15:06:29;5.80;99.90
20845;DHT22;10583;49.084;8.646;2023-12-20T15:08:58;5.80;99.90
20845;DHT22;10583;49.084;8.646;2023-12-20T15:11:25;5.70;99.90
20845;DHT22;10583;49.084;8.646;2023-12-20T15:13:52;5.60;99.90
20845;DHT22;10583;49.084;8.646;2023-12-20T15:16:21;5.60;99.90
20845;DHT22;10583;49.084;8.646;2023-12-20T15:18:48;5.50;99.90
20845;DHT22;10583;49.084;8.646;2023-12-20T15:21:15;5.50;99.90
20845;DHT22;10583;49.084;8.646;2023-12-20T15:23:42;5.50;99.90
20845;DHT22;10583;49.084;8.646;2023-12-20T15:26:19;5.50;99.90
20845;DHT22;10583;49.084;8.646;2023-12-20T15:28:46;5.40;99.90
20845;DHT22;10583;49.084;8.646;2023-12-20T15:31:13;5.40;99.90
20845;DHT22;10583;49.084;8.646;2023-12-20T15:33:40;5.40;99.90
20845;DHT22;10583;49.084;8.646;2023-12-20T15:36:07;5.50;99.90
20845;DHT22;10583;49.084;8.646;2023-12-20T15:38:34;5.50;99.90
20845;DHT22;10583;49.084;8.646;2023-12-20T15:41:01;5.50;99.90
20845;DHT22;10583;49.084;8.646;2023-12-20T15:43:29;5.60;99.90
20845;DHT22;10583;49.084;8.646;2023-12-20T15:45:56;5.60;99.90